Nova Redencao, Brazil
Current Conditions -  °F | °C
As of 8:00 PM on Saturday 22 Nov 2014 (Local Time) from SBQV Reporting Station
Drizzle Drizzle  
Wind Chill: 70°   Ceiling: 7000
Heat Index: 70°   Visibility: 5mi
Dew Point: 68°   Wind: 9mph
Humidity: 94%   Direction: 70°ENE
Pressure: 30.06"   Gusts: NA
Location:  12.82°S, 41.07°W
Report Text: SBQV 222300Z 07008KT 8000 -DZ SCT005 BKN070 21/20 Q1018
Loading
Personal Weather Stations






























Interactive Weather Map New forecast layout! Learn more

10-Day Weather Forecast

Advertisements
Track Severe Weather on mobile